createdAt,value
2018-06-11T00:01:55.737Z,16.50
2018-06-11T00:04:25.087Z,17.63
2018-06-11T00:06:54.359Z,17.13
2018-06-11T00:09:23.652Z,15.30
2018-06-11T00:11:53.198Z,14.73
2018-06-11T00:14:22.462Z,14.20
2018-06-11T00:16:51.775Z,14.47
2018-06-11T00:19:21.121Z,13.80
2018-06-11T00:21:50.400Z,14.33
2018-06-11T00:24:19.756Z,13.97
2018-06-11T00:26:49.088Z,14.57
2018-06-11T00:29:18.364Z,14.40
2018-06-11T00:31:47.694Z,16.33
2018-06-11T00:34:17.353Z,14.23
2018-06-11T00:36:46.678Z,14.20
2018-06-11T00:39:15.958Z,14.60
2018-06-11T00:41:45.326Z,14.83
2018-06-11T00:44:14.607Z,14.60
2018-06-11T00:46:43.873Z,13.77
2018-06-11T00:49:13.227Z,14.70
2018-06-11T00:51:42.479Z,14.43
2018-06-11T00:54:11.715Z,13.13
2018-06-11T00:56:41.079Z,14.27
2018-06-11T00:59:10.361Z,14.23
2018-06-11T01:01:39.638Z,15.60
2018-06-11T01:04:08.941Z,13.77
2018-06-11T01:06:38.185Z,13.63
2018-06-11T01:09:08.241Z,14.27
2018-06-11T01:11:37.552Z,14.93
2018-06-11T01:14:06.812Z,14.43
2018-06-11T01:16:36.647Z,13.70
2018-06-11T01:19:06.304Z,12.47
2018-06-11T01:21:35.572Z,14.53
2018-06-11T01:24:04.831Z,12.70
2018-06-11T01:26:34.147Z,12.53
2018-06-11T01:29:03.408Z,11.70
2018-06-11T01:31:32.700Z,11.70
2018-06-11T01:34:02.028Z,11.00
2018-06-11T01:36:31.289Z,11.30
2018-06-11T01:39:00.571Z,12.53
2018-06-11T01:41:30.074Z,12.77
2018-06-11T01:43:59.348Z,12.17
2018-06-11T01:46:28.630Z,13.27
2018-06-11T01:48:57.945Z,11.97
2018-06-11T01:51:27.235Z,11.50
2018-06-11T01:53:56.508Z,10.97
2018-06-11T01:56:25.805Z,10.60
2018-06-11T01:58:55.055Z,12.10
2018-06-11T02:01:24.328Z,10.73
2018-06-11T02:03:53.715Z,11.00
2018-06-11T02:06:24.537Z,10.60
2018-06-11T02:08:53.829Z,10.03
2018-06-11T02:11:23.172Z,9.60
2018-06-11T02:13:52.469Z,8.80
2018-06-11T02:16:22.389Z,10.20
2018-06-11T02:18:54.676Z,8.30
2018-06-11T02:21:23.981Z,9.20
2018-06-11T02:23:53.239Z,7.63
2018-06-11T02:26:22.816Z,7.17
2018-06-11T02:28:52.107Z,7.77
2018-06-11T02:31:21.383Z,8.00
2018-06-11T02:33:50.719Z,7.90
2018-06-11T02:36:20.045Z,7.80
2018-06-11T02:38:49.325Z,7.80
2018-06-11T02:41:18.626Z,8.30
2018-06-11T02:43:46.938Z,7.40
2018-06-11T02:46:16.179Z,7.70
2018-06-11T02:48:45.760Z,7.93
2018-06-11T02:51:15.063Z,6.77
2018-06-11T02:53:44.354Z,7.40
2018-06-11T02:56:13.701Z,6.80
2018-06-11T02:58:42.977Z,7.00
2018-06-11T03:01:12.001Z,7.97
2018-06-11T03:03:41.374Z,6.43
2018-06-11T03:06:10.657Z,6.87
2018-06-11T03:08:39.922Z,6.53
2018-06-11T03:11:09.559Z,7.80
2018-06-11T03:13:38.835Z,6.50
2018-06-11T03:16:08.101Z,6.27
2018-06-11T03:18:37.416Z,6.70
2018-06-11T03:21:06.703Z,6.37
2018-06-11T03:23:36.053Z,5.50
2018-06-11T03:26:05.378Z,6.97
2018-06-11T03:28:34.599Z,6.60
2018-06-11T03:31:03.850Z,5.63
2018-06-11T03:33:33.479Z,6.67
2018-06-11T03:36:02.949Z,6.70
2018-06-11T03:38:32.213Z,6.23
2018-06-11T03:41:01.475Z,6.07
2018-06-11T03:43:30.749Z,6.13
2018-06-11T03:46:00.088Z,6.10
2018-06-11T03:48:29.371Z,5.60
2018-06-11T03:50:58.664Z,6.93
2018-06-11T03:53:27.973Z,5.40
2018-06-11T03:55:57.804Z,5.60
2018-06-11T03:58:27.126Z,5.90
2018-06-11T04:00:56.471Z,6.10
2018-06-11T04:03:25.897Z,5.50
2018-06-11T04:05:55.162Z,6.20
2018-06-11T04:08:24.504Z,6.03
2018-06-11T04:10:53.893Z,5.70
2018-06-11T04:13:23.138Z,5.93
2018-06-11T04:15:52.401Z,7.00
2018-06-11T04:18:22.137Z,6.00
2018-06-11T04:20:51.464Z,6.60
2018-06-11T04:23:20.772Z,6.17
2018-06-11T04:25:50.094Z,7.47
2018-06-11T04:28:19.415Z,5.63
2018-06-11T04:30:48.679Z,6.00
2018-06-11T04:33:18.016Z,7.37
2018-06-11T04:35:47.336Z,6.87
2018-06-11T04:38:16.624Z,7.23
2018-06-11T04:40:46.139Z,7.33
2018-06-11T04:43:15.416Z,7.10
2018-06-11T04:45:44.771Z,6.40
2018-06-11T04:48:14.120Z,7.33
2018-06-11T04:50:43.437Z,6.67
2018-06-11T04:53:12.814Z,6.33
2018-06-11T04:55:42.139Z,5.80
2018-06-11T04:58:11.420Z,6.90
2018-06-11T05:00:40.736Z,6.80
2018-06-11T05:03:10.225Z,6.83
2018-06-11T05:05:39.523Z,7.03
2018-06-11T05:08:08.849Z,6.80
2018-06-11T05:10:38.185Z,6.37
2018-06-11T05:13:07.546Z,5.83
2018-06-11T05:15:36.961Z,6.07
2018-06-11T05:18:06.342Z,6.10
2018-06-11T05:20:35.695Z,6.90
2018-06-11T05:23:04.986Z,6.47
2018-06-11T05:25:34.455Z,6.90
2018-06-11T05:28:03.795Z,6.47
2018-06-11T05:30:33.080Z,6.00
2018-06-11T05:33:02.709Z,6.50
2018-06-11T05:35:31.999Z,7.40
2018-06-11T05:38:01.335Z,6.43
2018-06-11T05:40:30.649Z,6.60
2018-06-11T05:42:59.934Z,7.20
2018-06-11T05:45:29.234Z,7.73
2018-06-11T05:47:58.710Z,6.93
2018-06-11T05:50:28.122Z,7.30
2018-06-11T05:52:57.418Z,6.17
2018-06-11T05:55:26.812Z,5.63
2018-06-11T05:57:56.339Z,7.47
2018-06-11T06:00:25.931Z,7.03
2018-06-11T06:02:55.301Z,7.67
2018-06-11T06:05:24.621Z,8.67
2018-06-11T06:07:53.994Z,6.10
2018-06-11T06:10:23.751Z,6.33
2018-06-11T06:12:53.080Z,7.30
2018-06-11T06:15:22.383Z,6.80
2018-06-11T06:17:51.750Z,6.40
2018-06-11T06:20:21.047Z,6.60
2018-06-11T06:22:50.346Z,6.87
2018-06-11T06:25:19.805Z,7.00
2018-06-11T06:27:49.162Z,7.53
2018-06-11T06:30:18.547Z,7.40
2018-06-11T06:32:48.299Z,7.53
2018-06-11T06:35:17.811Z,7.03
2018-06-11T06:37:47.132Z,6.63
2018-06-11T06:40:16.579Z,7.10
2018-06-11T06:42:45.867Z,7.27
2018-06-11T06:45:15.204Z,7.17
2018-06-11T06:47:44.587Z,6.53
2018-06-11T06:50:13.879Z,7.30
2018-06-11T06:52:43.160Z,7.37
2018-06-11T06:55:12.850Z,6.63
2018-06-11T06:57:42.191Z,5.87
2018-06-11T07:00:11.573Z,6.40
2018-06-11T07:02:40.912Z,6.17
2018-06-11T07:05:10.276Z,5.87
2018-06-11T07:07:39.602Z,6.37
2018-06-11T07:10:08.918Z,7.00
2018-06-11T07:12:38.167Z,5.90
2018-06-11T07:15:07.497Z,5.10
2018-06-11T07:17:37.204Z,5.10
2018-06-11T07:20:06.564Z,5.47
2018-06-11T07:22:35.808Z,6.07
2018-06-11T07:25:05.101Z,5.00
2018-06-11T07:27:34.390Z,4.73
2018-06-11T07:30:03.674Z,4.57
2018-06-11T07:32:33.767Z,4.07
2018-06-11T07:35:03.051Z,3.90
2018-06-11T07:37:32.322Z,4.23
2018-06-11T07:40:01.714Z,3.93
2018-06-11T07:42:31.222Z,4.20
2018-06-11T07:45:00.475Z,4.53
2018-06-11T07:47:29.808Z,4.40
2018-06-11T07:49:59.139Z,4.50
2018-06-11T07:52:28.474Z,4.20
2018-06-11T07:54:57.789Z,4.87
2018-06-11T07:57:27.153Z,4.70
2018-06-11T07:59:56.599Z,4.73
2018-06-11T08:02:26.224Z,4.37
2018-06-11T08:04:55.626Z,5.20
2018-06-11T08:07:24.743Z,4.87
2018-06-11T08:09:54.168Z,4.47
2018-06-11T08:12:23.450Z,5.40
2018-06-11T08:14:52.766Z,5.07
2018-06-11T08:17:22.127Z,4.63
2018-06-11T08:19:51.529Z,4.40
2018-06-11T08:22:20.823Z,4.83
2018-06-11T08:24:50.543Z,4.80
2018-06-11T08:27:19.869Z,5.30
2018-06-11T08:29:49.140Z,4.63
2018-06-11T08:32:18.436Z,4.20
2018-06-11T08:34:47.808Z,4.17
2018-06-11T08:37:17.107Z,4.40
2018-06-11T08:39:46.398Z,4.17
2018-06-11T08:42:15.743Z,3.90
2018-06-11T08:44:45.039Z,4.20
2018-06-11T08:47:14.657Z,4.03
2018-06-11T08:49:43.970Z,3.40
2018-06-11T08:52:13.290Z,4.20
2018-06-11T08:54:42.596Z,3.93
2018-06-11T08:57:11.859Z,4.00
2018-06-11T08:59:41.159Z,4.80
2018-06-11T09:02:10.595Z,4.20
2018-06-11T09:04:39.901Z,3.97
2018-06-11T09:07:09.378Z,4.53
2018-06-11T09:09:39.200Z,3.87
2018-06-11T09:12:08.537Z,4.50
2018-06-11T09:14:37.871Z,4.97
2018-06-11T09:17:07.232Z,4.33
2018-06-11T09:19:36.573Z,4.30
2018-06-11T09:22:05.947Z,3.60
2018-06-11T09:24:35.339Z,4.33
2018-06-11T09:27:04.665Z,4.30
2018-06-11T09:29:37.288Z,4.30
2018-06-11T09:32:06.627Z,4.27
2018-06-11T09:34:35.988Z,4.60
2018-06-11T09:37:05.344Z,4.73
2018-06-11T09:39:34.640Z,4.10
2018-06-11T09:42:03.947Z,4.33
2018-06-11T09:44:33.271Z,4.10
2018-06-11T09:47:02.569Z,4.27
2018-06-11T09:49:31.851Z,4.23
2018-06-11T09:52:01.295Z,4.40
2018-06-11T09:54:30.596Z,4.70
2018-06-11T09:57:00.079Z,4.90
2018-06-11T09:59:29.362Z,4.83
2018-06-11T10:01:58.700Z,5.60
2018-06-11T10:04:27.984Z,4.37
2018-06-11T10:06:57.314Z,4.37
2018-06-11T10:09:26.598Z,4.27
2018-06-11T10:11:55.997Z,4.57
2018-06-11T10:14:25.882Z,3.97
2018-06-11T10:16:55.181Z,4.57
2018-06-11T10:19:24.515Z,4.07
2018-06-11T10:21:54.047Z,4.10
2018-06-11T10:24:23.318Z,4.17
2018-06-11T10:26:52.595Z,4.63
2018-06-11T10:29:21.966Z,3.70
2018-06-11T10:31:51.355Z,3.33
2018-06-11T10:34:20.891Z,4.30
2018-06-11T10:36:50.317Z,4.40
2018-06-11T10:39:19.588Z,3.30
2018-06-11T10:41:48.935Z,4.03
2018-06-11T10:44:18.344Z,3.43
2018-06-11T10:46:47.703Z,3.63
2018-06-11T10:49:17.095Z,9.03
2018-06-11T10:51:46.445Z,4.03
2018-06-11T10:54:15.931Z,3.77
2018-06-11T10:56:45.238Z,3.83
2018-06-11T10:59:14.693Z,4.90
2018-06-11T11:01:44.011Z,3.90
2018-06-11T11:04:13.337Z,4.37
2018-06-11T11:06:42.624Z,4.20
2018-06-11T11:09:12.208Z,3.33
2018-06-11T11:11:41.512Z,3.93
2018-06-11T11:14:10.862Z,3.80
2018-06-11T11:16:40.002Z,3.53
2018-06-11T11:19:09.532Z,3.00
2018-06-11T11:21:39.029Z,3.50
2018-06-11T11:24:08.350Z,3.10
2018-06-11T11:26:37.635Z,3.10
2018-06-11T11:29:06.862Z,2.83
2018-06-11T11:31:36.160Z,3.40
2018-06-11T11:34:05.542Z,3.60
2018-06-11T11:36:34.877Z,2.60
2018-06-11T11:39:06.287Z,2.83
2018-06-11T11:41:36.229Z,3.30
2018-06-11T11:44:05.579Z,3.00
2018-06-11T11:46:34.875Z,3.00
2018-06-11T11:49:04.268Z,3.50
2018-06-11T11:51:33.547Z,4.10
2018-06-11T11:54:02.936Z,3.07
2018-06-11T11:56:32.368Z,2.63
2018-06-11T11:59:01.757Z,7.70
2018-06-11T12:01:31.050Z,2.83
2018-06-11T12:04:00.714Z,2.70
2018-06-11T12:06:29.968Z,3.20
2018-06-11T12:08:59.266Z,2.90
2018-06-11T12:11:28.674Z,2.70
2018-06-11T12:13:57.996Z,3.03
2018-06-11T12:16:27.338Z,2.70
2018-06-11T12:18:56.741Z,2.90
2018-06-11T12:21:26.073Z,3.00
2018-06-11T12:23:55.410Z,3.20
2018-06-11T12:26:25.037Z,2.33
2018-06-11T12:28:54.365Z,3.37
2018-06-11T12:31:23.955Z,2.80
2018-06-11T12:33:53.346Z,2.83
2018-06-11T12:36:22.708Z,2.50
2018-06-11T12:38:52.092Z,2.83
2018-06-11T12:41:21.398Z,3.37
2018-06-11T12:43:50.660Z,2.97
2018-06-11T12:46:19.924Z,3.40
2018-06-11T12:48:49.455Z,2.87
2018-06-11T12:51:18.767Z,3.00
2018-06-11T12:53:48.664Z,3.17
2018-06-11T12:56:18.079Z,2.67
2018-06-11T12:58:47.486Z,2.87
2018-06-11T13:01:16.760Z,3.40
2018-06-11T13:03:46.085Z,3.00
2018-06-11T13:06:15.371Z,2.70
2018-06-11T13:08:44.767Z,3.40
2018-06-11T13:11:14.297Z,3.33
2018-06-11T13:13:43.559Z,3.00
2018-06-11T13:16:12.884Z,3.27
2018-06-11T13:18:42.236Z,3.33
2018-06-11T13:21:11.539Z,3.93
2018-06-11T13:23:40.776Z,3.17
2018-06-11T13:26:10.079Z,3.77
2018-06-11T13:28:39.362Z,3.77
2018-06-11T13:31:08.656Z,3.80
2018-06-11T13:33:38.461Z,3.57
2018-06-11T13:36:07.802Z,3.20
2018-06-11T13:38:37.063Z,3.70
2018-06-11T13:41:06.400Z,3.80
2018-06-11T13:43:35.675Z,3.90
2018-06-11T13:46:04.926Z,3.97
2018-06-11T13:48:34.252Z,4.10
2018-06-11T13:51:03.814Z,3.90
2018-06-11T13:53:33.093Z,3.80
2018-06-11T13:56:02.643Z,3.70
2018-06-11T13:58:31.932Z,3.77
2018-06-11T14:01:01.270Z,4.00
2018-06-11T14:03:30.650Z,4.10
2018-06-11T14:06:00.040Z,3.93
2018-06-11T14:08:29.315Z,4.20
2018-06-11T14:10:58.644Z,4.57
2018-06-11T14:13:27.887Z,5.87
2018-06-11T14:15:57.175Z,3.93
2018-06-11T14:18:26.852Z,3.90
2018-06-11T14:20:56.150Z,3.80
2018-06-11T14:23:25.387Z,3.60
2018-06-11T14:25:54.699Z,3.90
2018-06-11T14:28:23.987Z,3.67
2018-06-11T14:30:53.349Z,3.93
2018-06-11T14:33:22.724Z,4.43
2018-06-11T14:35:51.975Z,4.00
2018-06-11T14:38:21.264Z,4.13
2018-06-11T14:40:50.980Z,4.93
2018-06-11T14:43:20.414Z,3.80
2018-06-11T14:45:49.672Z,4.30
2018-06-11T14:48:19.037Z,4.27
2018-06-11T14:50:48.324Z,3.87
2018-06-11T14:53:17.734Z,4.00
2018-06-11T14:55:47.054Z,3.83
2018-06-11T14:58:16.574Z,4.40
2018-06-11T15:00:45.919Z,4.47
2018-06-11T15:03:15.292Z,3.77
2018-06-11T15:05:44.626Z,3.97
2018-06-11T15:08:14.007Z,4.20
2018-06-11T15:10:43.351Z,4.47
2018-06-11T15:13:12.623Z,4.03
2018-06-11T15:15:41.995Z,4.17
2018-06-11T15:18:11.289Z,4.93
2018-06-11T15:20:40.566Z,4.63
2018-06-11T15:23:09.833Z,4.20
2018-06-11T15:25:39.367Z,3.60
2018-06-11T15:28:08.790Z,3.40
2018-06-11T15:30:38.103Z,4.13
2018-06-11T15:33:07.475Z,4.73
2018-06-11T15:35:36.829Z,4.83
2018-06-11T15:38:06.197Z,4.13
2018-06-11T15:40:35.590Z,4.10
2018-06-11T15:43:05.332Z,3.70
2018-06-11T15:45:35.154Z,4.00
2018-06-11T15:48:04.609Z,4.57
2018-06-11T15:50:33.972Z,3.10
2018-06-11T15:53:03.261Z,3.60
2018-06-11T15:55:32.687Z,4.80
2018-06-11T15:58:02.093Z,4.10
2018-06-11T16:00:31.435Z,4.27
2018-06-11T16:03:00.698Z,3.70
2018-06-11T16:05:30.006Z,4.73
2018-06-11T16:07:59.260Z,4.40
2018-06-11T16:10:28.715Z,4.43
2018-06-11T16:12:58.050Z,4.10
2018-06-11T16:15:27.346Z,4.63
2018-06-11T16:17:56.771Z,3.90
2018-06-11T16:20:26.112Z,4.60
2018-06-11T16:22:55.439Z,4.27
2018-06-11T16:25:24.855Z,4.13
2018-06-11T16:27:54.282Z,3.97
2018-06-11T16:30:23.828Z,4.17
2018-06-11T16:32:53.643Z,3.90
2018-06-11T16:35:23.063Z,4.23
2018-06-11T16:37:52.397Z,3.90
2018-06-11T16:40:21.698Z,5.10
2018-06-11T16:42:51.063Z,4.23
2018-06-11T16:45:20.379Z,4.77
2018-06-11T16:47:49.763Z,3.80
2018-06-11T16:50:18.956Z,4.90
2018-06-11T16:52:48.227Z,4.73
2018-06-11T16:55:17.802Z,4.40
2018-06-11T16:57:47.130Z,4.37
2018-06-11T17:00:16.452Z,4.37
2018-06-11T17:02:45.805Z,5.23
2018-06-11T17:05:15.174Z,4.43
2018-06-11T17:07:44.557Z,4.70
2018-06-11T17:10:13.941Z,4.20
2018-06-11T17:12:43.304Z,4.77
2018-06-11T17:15:12.627Z,3.60
2018-06-11T17:17:42.530Z,4.33
2018-06-11T17:20:11.969Z,4.83
2018-06-11T17:22:41.364Z,4.43
2018-06-11T17:25:10.672Z,4.37
2018-06-11T17:27:40.066Z,4.07
2018-06-11T17:30:09.474Z,4.67
2018-06-11T17:32:38.918Z,4.67
2018-06-11T17:35:08.267Z,5.13
2018-06-11T17:37:37.571Z,5.20
2018-06-11T17:40:07.219Z,4.40
2018-06-11T17:42:36.603Z,4.37
2018-06-11T17:45:05.979Z,4.80
2018-06-11T17:47:35.279Z,5.27
2018-06-11T17:50:04.673Z,5.00
2018-06-11T17:52:34.088Z,4.60
2018-06-11T17:55:03.441Z,4.50
2018-06-11T17:57:32.757Z,4.07
2018-06-11T18:00:02.110Z,4.70
2018-06-11T18:02:31.452Z,6.03
2018-06-11T18:05:00.724Z,5.20
2018-06-11T18:07:30.048Z,4.73
2018-06-11T18:09:59.422Z,5.10
2018-06-11T18:12:28.756Z,5.90
2018-06-11T18:14:58.050Z,5.13
2018-06-11T18:17:27.615Z,5.30
2018-06-11T18:19:57.130Z,4.67
2018-06-11T18:22:26.726Z,5.07
2018-06-11T18:24:56.520Z,6.00
2018-06-11T18:27:26.029Z,5.30
2018-06-11T18:29:55.643Z,5.43
2018-06-11T18:32:25.008Z,5.10
2018-06-11T18:34:54.321Z,4.87
2018-06-11T18:37:23.729Z,5.00
2018-06-11T18:39:53.185Z,4.90
2018-06-11T18:42:22.496Z,5.00
2018-06-11T18:44:51.855Z,5.60
2018-06-11T18:47:21.295Z,4.57
2018-06-11T18:49:50.629Z,4.83
2018-06-11T18:52:19.962Z,5.00
2018-06-11T18:54:49.293Z,5.00
2018-06-11T18:57:18.670Z,5.20
2018-06-11T18:59:48.068Z,5.87
2018-06-11T19:02:17.513Z,5.07
2018-06-11T19:04:47.318Z,4.83
2018-06-11T19:07:16.466Z,5.73
2018-06-11T19:09:45.948Z,5.13
2018-06-11T19:12:15.313Z,6.83
2018-06-11T19:14:44.684Z,5.63
2018-06-11T19:17:14.214Z,5.13
2018-06-11T19:19:43.482Z,5.70
2018-06-11T19:22:12.865Z,6.13
2018-06-11T19:24:42.325Z,5.07
2018-06-11T19:27:11.831Z,6.00
2018-06-11T19:29:41.265Z,6.00
2018-06-11T19:32:10.755Z,5.90
2018-06-11T19:34:40.379Z,6.60
2018-06-11T19:37:09.690Z,5.87
2018-06-11T19:39:39.069Z,5.97
2018-06-11T19:42:08.492Z,6.03
2018-06-11T19:44:37.834Z,6.23
2018-06-11T19:47:07.140Z,6.80
2018-06-11T19:49:36.473Z,5.80
2018-06-11T19:52:05.806Z,6.50
2018-06-11T19:54:35.545Z,5.80
2018-06-11T19:57:04.875Z,6.30
2018-06-11T19:59:34.207Z,5.43
2018-06-11T20:02:03.614Z,6.33
2018-06-11T20:04:33.550Z,6.07
2018-06-11T20:07:02.853Z,6.20
2018-06-11T20:09:32.357Z,6.20
2018-06-11T20:12:01.710Z,6.33
2018-06-11T20:14:31.033Z,6.40
2018-06-11T20:17:00.557Z,6.73
2018-06-11T20:19:30.739Z,6.93
2018-06-11T20:22:00.238Z,6.07
2018-06-11T20:24:29.547Z,6.77
2018-06-11T20:26:58.960Z,6.77
2018-06-11T20:29:28.268Z,6.43
2018-06-11T20:31:57.636Z,6.70
2018-06-11T20:34:26.903Z,7.57
2018-06-11T20:36:56.318Z,6.63
2018-06-11T20:39:25.908Z,6.67
2018-06-11T20:42:02.085Z,7.30
2018-06-11T20:44:32.021Z,6.53
2018-06-11T20:47:01.540Z,6.80
2018-06-11T20:49:31.090Z,6.77
2018-06-11T20:52:00.585Z,6.20
2018-06-11T20:54:30.337Z,6.17
2018-06-11T20:57:00.019Z,6.67
2018-06-11T20:59:29.822Z,6.10
2018-06-11T21:01:59.287Z,7.00
2018-06-11T21:04:28.735Z,7.00
2018-06-11T21:06:58.489Z,6.67
2018-06-11T21:09:28.140Z,6.50
2018-06-11T21:11:57.661Z,6.77
2018-06-11T21:14:27.346Z,6.97
2018-06-11T21:16:57.262Z,6.70
2018-06-11T21:19:26.853Z,6.83
2018-06-11T21:21:57.391Z,7.10
2018-06-11T21:24:27.116Z,7.20
2018-06-11T21:26:56.533Z,6.67
2018-06-11T21:29:25.930Z,7.10
2018-06-11T21:31:55.417Z,6.80
2018-06-11T21:34:24.816Z,6.77
2018-06-11T21:36:54.029Z,6.77
2018-06-11T21:39:23.439Z,7.83
2018-06-11T21:41:53.151Z,6.80
2018-06-11T21:44:22.887Z,6.70
2018-06-11T21:46:52.513Z,6.77
2018-06-11T21:49:21.971Z,7.50
2018-06-11T21:51:51.262Z,6.17
2018-06-11T21:54:20.566Z,6.93
2018-06-11T21:56:49.853Z,7.13
2018-06-11T21:59:19.479Z,7.50
2018-06-11T22:01:48.807Z,6.90
2018-06-11T22:04:18.152Z,6.50
2018-06-11T22:06:47.754Z,5.97
2018-06-11T22:09:17.074Z,6.10
2018-06-11T22:11:46.422Z,5.60
2018-06-11T22:14:15.851Z,6.00
2018-06-11T22:16:45.267Z,5.40
2018-06-11T22:19:14.639Z,5.63
2018-06-11T22:21:44.008Z,5.20
2018-06-11T22:24:14.112Z,5.13
2018-06-11T22:26:43.367Z,4.33
2018-06-11T22:29:13.207Z,4.77
2018-06-11T22:31:42.535Z,4.93
2018-06-11T22:34:11.854Z,3.90
2018-06-11T22:36:41.256Z,4.30
2018-06-11T22:39:10.762Z,5.30
2018-06-11T22:41:40.088Z,4.57
2018-06-11T22:44:09.410Z,4.80
2018-06-11T22:46:38.755Z,4.97
2018-06-11T22:49:08.093Z,4.30
2018-06-11T22:51:37.812Z,4.63
2018-06-11T22:54:07.089Z,5.03
2018-06-11T22:56:36.366Z,4.47
2018-06-11T22:59:05.743Z,4.70
2018-06-11T23:01:35.079Z,4.53
2018-06-11T23:04:04.331Z,4.50
2018-06-11T23:06:33.643Z,4.40
2018-06-11T23:09:02.966Z,4.00
2018-06-11T23:11:32.263Z,4.17
2018-06-11T23:14:01.874Z,3.70
2018-06-11T23:16:31.322Z,3.90
2018-06-11T23:19:00.639Z,4.13
2018-06-11T23:21:29.977Z,4.40
2018-06-11T23:23:59.312Z,3.57
2018-06-11T23:26:28.621Z,4.30
2018-06-11T23:28:57.923Z,4.33
2018-06-11T23:31:27.252Z,4.30
2018-06-11T23:33:56.704Z,4.30
2018-06-11T23:36:26.414Z,3.80
2018-06-11T23:38:55.716Z,4.27
2018-06-11T23:41:25.038Z,4.33
2018-06-11T23:43:54.348Z,4.60
2018-06-11T23:46:23.662Z,4.10
2018-06-11T23:48:53.303Z,5.10
2018-06-11T23:51:22.639Z,5.00
2018-06-11T23:53:51.931Z,4.07
2018-06-11T23:56:21.219Z,3.80
2018-06-11T23:58:50.851Z,4.40
